createdAt,value
2022-11-15T00:02:25.828Z,100.00
2022-11-15T00:07:55.651Z,100.00
2022-11-15T00:13:17.099Z,100.00
2022-11-15T00:18:39.042Z,100.00
2022-11-15T00:24:01.771Z,100.00
2022-11-15T00:29:23.643Z,100.00
2022-11-15T00:34:45.604Z,100.00
2022-11-15T00:40:09.364Z,100.00
2022-11-15T00:45:30.755Z,100.00
2022-11-15T00:50:52.034Z,100.00
2022-11-15T00:56:14.551Z,100.00
2022-11-15T01:01:36.377Z,100.00
2022-11-15T01:06:57.736Z,100.00
2022-11-15T01:12:20.679Z,100.00
2022-11-15T01:17:45.919Z,100.00
2022-11-15T01:23:07.229Z,100.00
2022-11-15T01:28:33.158Z,100.00
2022-11-15T01:33:54.599Z,100.00
2022-11-15T01:39:16.174Z,100.00
2022-11-15T01:44:45.958Z,100.00
2022-11-15T01:50:12.516Z,100.00
2022-11-15T01:55:34.442Z,100.00
2022-11-15T02:06:45.903Z,100.00
2022-11-15T02:12:09.199Z,100.00
2022-11-15T02:17:49.597Z,100.00
2022-11-15T02:24:01.003Z,100.00
2022-11-15T02:29:37.387Z,100.00
2022-11-15T02:35:10.798Z,100.00
2022-11-15T02:40:41.846Z,100.00
2022-11-15T02:46:08.338Z,100.00
2022-11-15T02:51:30.606Z,100.00
2022-11-15T02:56:53.971Z,100.00
2022-11-15T03:02:45.380Z,100.00
2022-11-15T03:08:13.711Z,100.00
2022-11-15T03:13:40.185Z,100.00
2022-11-15T03:19:08.749Z,100.00
2022-11-15T03:24:33.544Z,100.00
2022-11-15T03:29:59.966Z,100.00
2022-11-15T03:35:23.301Z,100.00
2022-11-15T03:40:53.123Z,100.00
2022-11-15T03:46:17.103Z,100.00
2022-11-15T03:51:38.572Z,100.00
2022-11-15T03:57:00.913Z,100.00
2022-11-15T04:02:22.343Z,100.00
2022-11-15T04:07:43.615Z,100.00
2022-11-15T04:13:06.290Z,100.00
2022-11-15T04:18:27.919Z,100.00
2022-11-15T04:24:02.872Z,100.00
2022-11-15T04:29:37.544Z,100.00
2022-11-15T04:34:58.627Z,100.00
2022-11-15T04:40:20.053Z,100.00
2022-11-15T04:45:42.520Z,100.00
2022-11-15T04:51:03.886Z,100.00
2022-11-15T04:56:25.092Z,100.00
2022-11-15T05:01:47.628Z,100.00
2022-11-15T05:07:08.869Z,100.00
2022-11-15T05:12:30.004Z,100.00
2022-11-15T05:17:52.713Z,100.00
2022-11-15T05:23:13.822Z,100.00
2022-11-15T05:28:35.756Z,100.00
2022-11-15T05:34:01.968Z,100.00
2022-11-15T05:39:23.367Z,100.00
2022-11-15T05:44:47.794Z,100.00
2022-11-15T05:50:14.695Z,100.00
2022-11-15T05:55:36.175Z,100.00
2022-11-15T06:00:57.240Z,100.00
2022-11-15T06:06:19.786Z,100.00
2022-11-15T06:11:40.992Z,100.00
2022-11-15T06:17:06.050Z,100.00
2022-11-15T06:22:32.559Z,100.00
2022-11-15T06:27:54.547Z,100.00
2022-11-15T06:33:16.066Z,100.00
2022-11-15T06:38:39.423Z,100.00
2022-11-15T06:44:00.866Z,100.00
2022-11-15T06:49:22.569Z,100.00
2022-11-15T06:54:44.834Z,100.00
2022-11-15T07:00:06.967Z,100.00
2022-11-15T07:05:29.351Z,100.00
2022-11-15T07:10:52.541Z,100.00
2022-11-15T07:16:14.237Z,100.00
2022-11-15T07:21:35.318Z,100.00
2022-11-15T07:26:57.666Z,100.00
2022-11-15T07:32:18.967Z,100.00
2022-11-15T07:37:40.075Z,100.00
2022-11-15T07:43:03.618Z,100.00
2022-11-15T07:48:25.131Z,100.00
2022-11-15T07:53:46.655Z,100.00
2022-11-15T07:59:09.264Z,100.00
2022-11-15T08:04:30.522Z,100.00
2022-11-15T08:09:51.647Z,100.00
2022-11-15T08:15:14.481Z,100.00
2022-11-15T08:20:36.163Z,100.00
2022-11-15T08:26:01.688Z,100.00
2022-11-15T08:31:24.381Z,100.00
2022-11-15T08:36:46.259Z,100.00
2022-11-15T08:42:07.698Z,100.00
2022-11-15T08:47:30.330Z,100.00
2022-11-15T08:52:51.663Z,100.00
2022-11-15T08:58:16.648Z,100.00
2022-11-15T09:03:41.694Z,100.00
2022-11-15T09:09:03.140Z,100.00
2022-11-15T09:14:24.103Z,100.00
2022-11-15T09:19:47.173Z,100.00
2022-11-15T09:25:11.086Z,100.00
2022-11-15T09:30:32.211Z,100.00
2022-11-15T09:35:55.722Z,100.00
2022-11-15T09:41:50.320Z,100.00
2022-11-15T09:47:39.292Z,100.00
2022-11-15T09:53:01.131Z,100.00
2022-11-15T09:58:13.060Z,100.00
2022-11-15T10:03:17.839Z,100.00
2022-11-15T10:08:36.727Z,100.00
2022-11-15T10:13:43.452Z,100.00
2022-11-15T10:18:58.178Z,100.00
2022-11-15T10:24:03.074Z,100.00
2022-11-15T10:29:05.614Z,100.00
2022-11-15T10:34:15.185Z,100.00
2022-11-15T10:39:19.068Z,100.00
2022-11-15T10:44:27.752Z,100.00
2022-11-15T10:49:31.968Z,100.00
2022-11-15T10:54:39.885Z,100.00
2022-11-15T10:59:47.758Z,100.00
2022-11-15T11:04:53.723Z,100.00
2022-11-15T11:10:03.621Z,100.00
2022-11-15T11:15:13.822Z,100.00
2022-11-15T11:20:22.930Z,100.00
2022-11-15T11:25:37.845Z,100.00
2022-11-15T11:30:52.382Z,100.00
2022-11-15T11:36:05.820Z,100.00
2022-11-15T11:41:20.824Z,100.00
2022-11-15T11:46:40.004Z,100.00
2022-11-15T11:51:47.454Z,100.00
2022-11-15T11:56:53.374Z,100.00
2022-11-15T12:01:57.081Z,100.00
2022-11-15T12:07:03.718Z,100.00
2022-11-15T12:12:13.127Z,100.00
2022-11-15T12:17:19.572Z,100.00
2022-11-15T12:22:26.213Z,100.00
2022-11-15T12:27:35.498Z,100.00
2022-11-15T12:32:41.928Z,99.73
2022-11-15T12:37:50.903Z,98.50
2022-11-15T12:43:03.794Z,97.29
2022-11-15T12:48:38.731Z,94.19
2022-11-15T12:53:41.320Z,94.38
2022-11-15T12:58:47.707Z,94.94
2022-11-15T13:04:15.744Z,93.71
2022-11-15T13:09:54.289Z,92.89
2022-11-15T13:14:58.713Z,91.67
2022-11-15T13:20:15.366Z,92.97
2022-11-15T13:25:23.609Z,92.61
2022-11-15T13:30:31.092Z,92.93
2022-11-15T13:35:38.140Z,94.14
2022-11-15T13:40:40.672Z,95.10
2022-11-15T13:45:44.769Z,96.46
2022-11-15T13:50:47.482Z,97.74
2022-11-15T13:55:50.203Z,96.84
2022-11-15T14:01:01.880Z,97.04
2022-11-15T14:06:08.450Z,96.52
2022-11-15T14:11:16.882Z,97.79
2022-11-15T14:16:25.148Z,98.72
2022-11-15T14:21:27.900Z,98.15
2022-11-15T14:26:32.304Z,98.40
2022-11-15T14:31:41.103Z,98.96
2022-11-15T14:36:46.128Z,99.92
2022-11-15T14:41:48.742Z,98.97
2022-11-15T14:46:52.656Z,99.14
2022-11-15T14:51:55.281Z,99.78
2022-11-15T14:56:58.221Z,99.66
2022-11-15T15:02:02.119Z,100.00
2022-11-15T15:07:04.827Z,100.00
2022-11-15T15:12:13.974Z,100.00
2022-11-15T15:17:18.658Z,100.00
2022-11-15T15:22:23.411Z,100.00
2022-11-15T15:27:25.995Z,100.00
2022-11-15T15:32:29.876Z,100.00
2022-11-15T15:37:33.957Z,100.00
2022-11-15T15:42:36.503Z,100.00
2022-11-15T15:47:41.304Z,100.00
2022-11-15T15:52:43.873Z,100.00
2022-11-15T15:57:46.826Z,100.00
2022-11-15T16:02:50.860Z,100.00
2022-11-15T16:07:53.709Z,100.00
2022-11-15T16:12:57.568Z,100.00
2022-11-15T16:18:02.905Z,100.00
2022-11-15T16:23:09.549Z,100.00
2022-11-15T16:28:19.646Z,100.00
2022-11-15T16:33:23.822Z,100.00
2022-11-15T16:38:26.400Z,100.00
2022-11-15T16:43:29.290Z,100.00
2022-11-15T16:48:34.886Z,100.00
2022-11-15T16:53:38.269Z,100.00
2022-11-15T16:58:40.795Z,100.00
2022-11-15T17:03:44.723Z,100.00
2022-11-15T17:08:48.027Z,100.00
2022-11-15T17:13:50.607Z,100.00
2022-11-15T17:18:54.457Z,100.00
2022-11-15T17:23:57.003Z,100.00
2022-11-15T17:29:01.235Z,100.00
2022-11-15T17:34:06.234Z,100.00
2022-11-15T17:39:08.798Z,100.00
2022-11-15T17:44:11.439Z,100.00
2022-11-15T17:49:15.303Z,100.00
2022-11-15T17:54:17.919Z,100.00
2022-11-15T17:59:21.731Z,100.00
2022-11-15T18:04:28.229Z,100.00
2022-11-15T18:09:30.807Z,100.00
2022-11-15T18:14:33.335Z,100.00
2022-11-15T18:19:37.645Z,100.00
2022-11-15T18:24:42.529Z,100.00
2022-11-15T18:29:45.082Z,100.00
2022-11-15T18:34:49.036Z,100.00
2022-11-15T18:39:53.979Z,100.00
2022-11-15T18:44:56.947Z,100.00
2022-11-15T18:50:00.968Z,100.00
2022-11-15T18:55:04.879Z,100.00
2022-11-15T19:00:09.418Z,100.00
2022-11-15T19:05:15.540Z,100.00
2022-11-15T19:10:18.189Z,100.00
2022-11-15T19:15:20.871Z,100.00
2022-11-15T19:20:24.911Z,100.00
2022-11-15T19:25:28.717Z,100.00
2022-11-15T19:36:23.926Z,100.00
2022-11-15T19:41:27.217Z,100.00
2022-11-15T19:46:29.903Z,100.00
2022-11-15T19:51:33.912Z,100.00
2022-11-15T19:56:37.688Z,100.00
2022-11-15T20:01:40.483Z,100.00
2022-11-15T20:06:44.523Z,100.00
2022-11-15T20:11:47.583Z,100.00
2022-11-15T20:16:54.100Z,100.00
2022-11-15T20:21:58.581Z,100.00
2022-11-15T20:27:01.414Z,100.00
2022-11-15T20:32:05.202Z,100.00
2022-11-15T20:37:09.249Z,100.00
2022-11-15T20:42:11.789Z,100.00
2022-11-15T20:47:14.387Z,100.00
2022-11-15T20:52:18.417Z,100.00
2022-11-15T20:57:21.007Z,100.00
2022-11-15T21:02:24.185Z,100.00
2022-11-15T21:07:28.296Z,100.00
2022-11-15T21:12:32.624Z,100.00
2022-11-15T21:17:35.394Z,100.00
2022-11-15T21:22:39.463Z,100.00
2022-11-15T21:27:42.018Z,100.00
2022-11-15T21:32:45.296Z,100.00
2022-11-15T21:37:54.983Z,100.00
2022-11-15T21:42:59.216Z,100.00
2022-11-15T21:48:01.834Z,100.00
2022-11-15T21:53:05.750Z,100.00
2022-11-15T21:58:08.384Z,100.00
2022-11-15T22:03:12.651Z,100.00
2022-11-15T22:08:16.572Z,100.00
2022-11-15T22:13:19.603Z,100.00
2022-11-15T22:18:26.396Z,100.00
2022-11-15T22:23:32.281Z,100.00
2022-11-15T22:28:35.641Z,100.00
2022-11-15T22:33:39.236Z,100.00
2022-11-15T22:38:43.247Z,100.00
2022-11-15T22:43:48.055Z,100.00
2022-11-15T22:48:52.462Z,100.00
2022-11-15T22:53:56.763Z,100.00
2022-11-15T22:58:59.288Z,100.00
2022-11-15T23:04:01.907Z,100.00
2022-11-15T23:09:05.848Z,100.00
2022-11-15T23:14:09.059Z,100.00
2022-11-15T23:19:13.025Z,100.00
2022-11-15T23:24:18.095Z,100.00
2022-11-15T23:29:22.859Z,100.00
2022-11-15T23:34:26.103Z,100.00
2022-11-15T23:39:29.988Z,100.00
2022-11-15T23:44:32.572Z,100.00
2022-11-15T23:49:35.211Z,100.00
2022-11-15T23:54:39.255Z,100.00
2022-11-15T23:59:43.856Z,100.00
